sensor_id;sensor_type;location;lat;lon;timestamp;pressure;altitude;pressure_sealevel;temperature;humidity
60055;BME280;45930;53.514;55.904;2023-04-22T00:00:48;49094.34;;;-149.77;31.66
60055;BME280;45930;53.514;55.904;2023-04-22T00:01:48;49088.41;;;-149.77;31.65
60055;BME280;45930;53.514;55.904;2023-04-22T00:02:49;49080.47;;;-149.77;31.73
60055;BME280;45930;53.514;55.904;2023-04-22T00:03:50;49104.25;;;-149.77;31.54
60055;BME280;45930;53.514;55.904;2023-04-22T00:04:51;49108.19;;;-149.77;31.62
60055;BME280;45930;53.514;55.904;2023-04-22T00:05:52;49096.31;;;-149.77;31.60
60055;BME280;45930;53.514;55.904;2023-04-22T00:06:54;49070.56;;;-149.77;31.50
60055;BME280;45930;53.514;55.904;2023-04-22T00:07:54;49076.50;;;-149.77;31.40
60055;BME280;45930;53.514;55.904;2023-04-22T00:08:55;49088.41;;;-149.77;31.37
60055;BME280;45930;53.514;55.904;2023-04-22T00:09:56;49124.03;;;-149.77;31.31
60055;BME280;45930;53.514;55.904;2023-04-22T00:10:57;49088.41;;;-149.77;31.38
60055;BME280;45930;53.514;55.904;2023-04-22T00:11:58;49066.59;;;-149.77;31.15
60055;BME280;45930;53.514;55.904;2023-04-22T00:12:59;49078.50;;;-149.77;31.22
60055;BME280;45930;53.514;55.904;2023-04-22T00:13:59;49088.41;;;-149.77;31.38
60055;BME280;45930;53.514;55.904;2023-04-22T00:15:00;49072.53;;;-149.77;31.22
60055;BME280;45930;53.514;55.904;2023-04-22T00:16:02;49096.31;;;-149.77;31.34
60055;BME280;45930;53.514;55.904;2023-04-22T00:17:03;49096.31;;;-149.77;31.30
60055;BME280;45930;53.514;55.904;2023-04-22T00:18:04;49084.44;;;-149.77;31.09
60055;BME280;45930;53.514;55.904;2023-04-22T00:19:06;49088.41;;;-149.77;31.19
60055;BME280;45930;53.514;55.904;2023-04-22T00:20:07;49088.41;;;-149.77;31.26
60055;BME280;45930;53.514;55.904;2023-04-22T00:21:10;49112.16;;;-149.77;31.09
60055;BME280;45930;53.514;55.904;2023-04-22T00:22:11;49100.28;;;-149.77;31.17
60055;BME280;45930;53.514;55.904;2023-04-22T00:23:12;49094.34;;;-149.77;31.28
60055;BME280;45930;53.514;55.904;2023-04-22T00:24:12;49066.59;;;-149.77;31.22
60055;BME280;45930;53.514;55.904;2023-04-22T00:25:14;49116.13;;;-149.77;31.19
60055;BME280;45930;53.514;55.904;2023-04-22T00:26:15;49068.59;;;-149.77;31.23
60055;BME280;45930;53.514;55.904;2023-04-22T00:27:16;49076.50;;;-149.77;31.25
60055;BME280;45930;53.514;55.904;2023-04-22T00:28:17;49102.25;;;-149.77;31.15
60055;BME280;45930;53.514;55.904;2023-04-22T00:29:18;49100.28;;;-149.77;31.11
60055;BME280;45930;53.514;55.904;2023-04-22T00:30:19;49082.44;;;-149.77;31.29
60055;BME280;45930;53.514;55.904;2023-04-22T00:31:19;49076.50;;;-149.77;31.17
60055;BME280;45930;53.514;55.904;2023-04-22T00:32:20;49104.25;;;-149.77;31.22
60055;BME280;45930;53.514;55.904;2023-04-22T00:33:22;49092.34;;;-149.77;31.28
60055;BME280;45930;53.514;55.904;2023-04-22T00:34:22;49084.44;;;-149.77;31.42
60055;BME280;45930;53.514;55.904;2023-04-22T00:35:23;49112.16;;;-149.77;31.47
60055;BME280;45930;53.514;55.904;2023-04-22T00:36:24;49108.19;;;-149.77;31.55
60055;BME280;45930;53.514;55.904;2023-04-22T00:37:25;49088.41;;;-149.77;31.73
60055;BME280;45930;53.514;55.904;2023-04-22T00:38:26;49092.34;;;-149.77;31.96
60055;BME280;45930;53.514;55.904;2023-04-22T00:39:27;49100.28;;;-149.77;32.06
60055;BME280;45930;53.514;55.904;2023-04-22T00:40:28;49106.22;;;-149.77;32.38
60055;BME280;45930;53.514;55.904;2023-04-22T00:41:29;49116.13;;;-149.77;32.90
60055;BME280;45930;53.514;55.904;2023-04-22T00:42:30;49100.28;;;-149.77;33.29
60055;BME280;45930;53.514;55.904;2023-04-22T00:43:31;49076.50;;;-149.77;33.39
60055;BME280;45930;53.514;55.904;2023-04-22T00:44:32;49072.53;;;-149.77;33.58
60055;BME280;45930;53.514;55.904;2023-04-22T00:45:36;49076.50;;;-149.77;33.74
60055;BME280;45930;53.514;55.904;2023-04-22T00:46:37;49100.28;;;-149.77;33.86
60055;BME280;45930;53.514;55.904;2023-04-22T00:47:39;49088.41;;;-149.77;34.05
60055;BME280;45930;53.514;55.904;2023-04-22T00:48:40;49106.22;;;-149.77;34.74
60055;BME280;45930;53.514;55.904;2023-04-22T00:49:42;49084.44;;;-149.77;34.94
60055;BME280;45930;53.514;55.904;2023-04-22T00:50:42;49072.53;;;-149.77;35.46
60055;BME280;45930;53.514;55.904;2023-04-22T00:51:43;49090.38;;;-149.77;36.06
60055;BME280;45930;53.514;55.904;2023-04-22T00:52:44;49070.56;;;-149.77;36.29
60055;BME280;45930;53.514;55.904;2023-04-22T00:53:45;49098.28;;;-149.77;36.50
60055;BME280;45930;53.514;55.904;2023-04-22T00:54:46;49084.44;;;-149.77;36.79
60055;BME280;45930;53.514;55.904;2023-04-22T00:55:49;49060.66;;;-149.77;36.98
60055;BME280;45930;53.514;55.904;2023-04-22T00:56:50;49074.53;;;-149.77;36.99
60055;BME280;45930;53.514;55.904;2023-04-22T00:57:53;49098.28;;;-149.77;36.99
60055;BME280;45930;53.514;55.904;2023-04-22T00:58:55;49070.56;;;-149.77;36.87
60055;BME280;45930;53.514;55.904;2023-04-22T00:59:56;49086.41;;;-149.77;37.02
60055;BME280;45930;53.514;55.904;2023-04-22T01:00:57;49088.41;;;-149.77;37.26
60055;BME280;45930;53.514;55.904;2023-04-22T01:01:58;49084.44;;;-149.77;37.37
60055;BME280;45930;53.514;55.904;2023-04-22T01:03:00;49076.50;;;-149.77;37.50
60055;BME280;45930;53.514;55.904;2023-04-22T01:04:02;49078.50;;;-149.77;37.67
60055;BME280;45930;53.514;55.904;2023-04-22T01:05:04;49100.28;;;-149.77;37.75
60055;BME280;45930;53.514;55.904;2023-04-22T01:06:06;49078.50;;;-149.77;37.99
60055;BME280;45930;53.514;55.904;2023-04-22T01:07:07;49068.59;;;-149.77;38.29
60055;BME280;45930;53.514;55.904;2023-04-22T01:08:08;49076.50;;;-149.77;38.48
60055;BME280;45930;53.514;55.904;2023-04-22T01:09:09;49100.28;;;-149.77;38.56
60055;BME280;45930;53.514;55.904;2023-04-22T01:10:10;49050.75;;;-149.77;38.92
60055;BME280;45930;53.514;55.904;2023-04-22T01:11:11;49076.50;;;-149.77;39.20
60055;BME280;45930;53.514;55.904;2023-04-22T01:12:12;49066.59;;;-149.77;39.50
60055;BME280;45930;53.514;55.904;2023-04-22T01:13:12;49068.59;;;-149.77;39.66
60055;BME280;45930;53.514;55.904;2023-04-22T01:14:14;49076.50;;;-149.77;39.90
60055;BME280;45930;53.514;55.904;2023-04-22T01:15:15;49068.59;;;-149.77;40.01
60055;BME280;45930;53.514;55.904;2023-04-22T01:16:15;49062.66;;;-149.77;40.03
60055;BME280;45930;53.514;55.904;2023-04-22T01:17:16;49082.44;;;-149.77;40.22
60055;BME280;45930;53.514;55.904;2023-04-22T01:18:19;49048.78;;;-149.77;40.69
60055;BME280;45930;53.514;55.904;2023-04-22T01:19:19;49096.31;;;-149.77;41.05
60055;BME280;45930;53.514;55.904;2023-04-22T01:20:21;49088.41;;;-149.77;41.34
60055;BME280;45930;53.514;55.904;2023-04-22T01:21:22;49074.53;;;-149.77;41.36
60055;BME280;45930;53.514;55.904;2023-04-22T01:22:25;49021.06;;;-149.77;41.48
60055;BME280;45930;53.514;55.904;2023-04-22T01:23:27;49092.34;;;-149.77;41.87
60055;BME280;45930;53.514;55.904;2023-04-22T01:24:28;49060.66;;;-149.77;41.93
60055;BME280;45930;53.514;55.904;2023-04-22T01:25:28;49050.75;;;-149.77;42.36
60055;BME280;45930;53.514;55.904;2023-04-22T01:26:29;49058.69;;;-149.77;42.48
60055;BME280;45930;53.514;55.904;2023-04-22T01:27:31;49072.53;;;-149.77;42.70
60055;BME280;45930;53.514;55.904;2023-04-22T01:28:32;49090.38;;;-149.77;42.87
60055;BME280;45930;53.514;55.904;2023-04-22T01:29:35;49062.66;;;-149.77;43.20
60055;BME280;45930;53.514;55.904;2023-04-22T01:30:37;49048.78;;;-149.77;43.13
60055;BME280;45930;53.514;55.904;2023-04-22T01:31:38;49072.53;;;-149.77;43.43
60055;BME280;45930;53.514;55.904;2023-04-22T01:32:40;49062.66;;;-149.77;43.56
60055;BME280;45930;53.514;55.904;2023-04-22T01:33:41;49060.66;;;-149.77;43.72
60055;BME280;45930;53.514;55.904;2023-04-22T01:34:43;49070.56;;;-149.77;44.33
60055;BME280;45930;53.514;55.904;2023-04-22T01:35:44;49066.59;;;-149.77;44.61
60055;BME280;45930;53.514;55.904;2023-04-22T01:36:45;49064.63;;;-149.77;45.11
60055;BME280;45930;53.514;55.904;2023-04-22T01:37:46;49084.44;;;-149.77;45.53
60055;BME280;45930;53.514;55.904;2023-04-22T01:38:47;49048.78;;;-149.77;46.32
60055;BME280;45930;53.514;55.904;2023-04-22T01:39:48;49064.63;;;-149.77;46.94
60055;BME280;45930;53.514;55.904;2023-04-22T01:40:50;49062.66;;;-149.77;48.44
60055;BME280;45930;53.514;55.904;2023-04-22T01:41:51;49038.88;;;-149.77;49.70
60055;BME280;45930;53.514;55.904;2023-04-22T01:42:53;49032.94;;;-149.77;49.68
60055;BME280;45930;53.514;55.904;2023-04-22T01:43:56;49038.88;;;-149.77;50.88
60055;BME280;45930;53.514;55.904;2023-04-22T01:44:58;49013.13;;;-149.77;50.64
60055;BME280;45930;53.514;55.904;2023-04-22T01:46:03;49036.91;;;-149.77;52.87
60055;BME280;45930;53.514;55.904;2023-04-22T01:47:05;49023.03;;;-149.77;53.51
60055;BME280;45930;53.514;55.904;2023-04-22T01:48:05;49032.94;;;-149.77;54.41
60055;BME280;45930;53.514;55.904;2023-04-22T01:49:06;49027.00;;;-149.77;54.74
60055;BME280;45930;53.514;55.904;2023-04-22T01:50:07;49013.13;;;-149.77;55.37
60055;BME280;45930;53.514;55.904;2023-04-22T01:51:08;49062.66;;;-149.77;55.47
60055;BME280;45930;53.514;55.904;2023-04-22T01:52:09;49017.09;;;-149.77;55.46
60055;BME280;45930;53.514;55.904;2023-04-22T01:53:11;49017.09;;;-149.77;55.16
60055;BME280;45930;53.514;55.904;2023-04-22T01:54:12;49013.13;;;-149.77;55.64
60055;BME280;45930;53.514;55.904;2023-04-22T01:55:13;49036.91;;;-149.77;55.95
60055;BME280;45930;53.514;55.904;2023-04-22T01:56:15;49021.06;;;-149.77;55.51
60055;BME280;45930;53.514;55.904;2023-04-22T01:57:16;48993.31;;;-149.77;55.98
60055;BME280;45930;53.514;55.904;2023-04-22T01:58:17;49046.78;;;-149.77;56.57
60055;BME280;45930;53.514;55.904;2023-04-22T01:59:18;49013.13;;;-149.77;57.68
60055;BME280;45930;53.514;55.904;2023-04-22T02:00:20;49021.06;;;-149.77;58.08
60055;BME280;45930;53.514;55.904;2023-04-22T02:01:21;48997.28;;;-149.77;59.76
60055;BME280;45930;53.514;55.904;2023-04-22T02:02:21;48985.41;;;-149.77;60.42
60055;BME280;45930;53.514;55.904;2023-04-22T02:03:22;48993.31;;;-149.77;61.48
60055;BME280;45930;53.514;55.904;2023-04-22T02:04:23;48989.34;;;-149.77;63.01
60055;BME280;45930;53.514;55.904;2023-04-22T02:05:24;48959.66;;;-149.77;64.16
60055;BME280;45930;53.514;55.904;2023-04-22T02:06:25;48957.66;;;-149.77;65.69
60055;BME280;45930;53.514;55.904;2023-04-22T02:07:27;48961.63;;;-149.77;66.28
60055;BME280;45930;53.514;55.904;2023-04-22T02:08:27;48989.34;;;-149.77;66.30
60055;BME280;45930;53.514;55.904;2023-04-22T02:09:28;48985.41;;;-149.77;66.52
60055;BME280;45930;53.514;55.904;2023-04-22T02:10:29;48925.97;;;-149.77;67.96
60055;BME280;45930;53.514;55.904;2023-04-22T02:11:31;48951.72;;;-149.77;69.36
60055;BME280;45930;53.514;55.904;2023-04-22T02:12:32;48922.03;;;-149.77;70.10
60055;BME280;45930;53.514;55.904;2023-04-22T02:13:36;48908.16;;;-149.77;71.09
60055;BME280;45930;53.514;55.904;2023-04-22T02:14:37;48914.09;;;-149.77;72.34
60055;BME280;45930;53.514;55.904;2023-04-22T02:15:38;48906.16;;;-149.77;73.29
60055;BME280;45930;53.514;55.904;2023-04-22T02:16:41;48898.25;;;-149.77;74.27
60055;BME280;45930;53.514;55.904;2023-04-22T02:17:42;48862.59;;;-149.77;75.56
60055;BME280;45930;53.514;55.904;2023-04-22T02:18:43;48872.50;;;-149.77;76.33
60055;BME280;45930;53.514;55.904;2023-04-22T02:19:44;48840.81;;;-149.77;77.37
60055;BME280;45930;53.514;55.904;2023-04-22T02:20:44;48836.84;;;-149.77;77.09
60055;BME280;45930;53.514;55.904;2023-04-22T02:21:45;48842.78;;;-149.77;77.32
60055;BME280;45930;53.514;55.904;2023-04-22T02:22:46;48834.88;;;-149.77;77.81
60055;BME280;45930;53.514;55.904;2023-04-22T02:23:47;48807.16;;;-149.77;79.10
60055;BME280;45930;53.514;55.904;2023-04-22T02:24:48;48805.16;;;-149.77;78.26
60055;BME280;45930;53.514;55.904;2023-04-22T02:25:50;48838.84;;;-149.77;78.35
60055;BME280;45930;53.514;55.904;2023-04-22T02:26:51;48823.00;;;-149.77;78.91
60055;BME280;45930;53.514;55.904;2023-04-22T02:27:52;48799.22;;;-149.77;79.67
60055;BME280;45930;53.514;55.904;2023-04-22T02:28:53;48821.00;;;-149.77;80.22
60055;BME280;45930;53.514;55.904;2023-04-22T02:29:53;48787.34;;;-149.77;80.93
60055;BME280;45930;53.514;55.904;2023-04-22T02:30:54;48743.75;;;-149.77;81.30
60055;BME280;45930;53.514;55.904;2023-04-22T02:31:55;48761.59;;;-149.77;81.46
60055;BME280;45930;53.514;55.904;2023-04-22T02:32:56;48753.66;;;-149.77;81.60
60055;BME280;45930;53.514;55.904;2023-04-22T02:33:57;48743.75;;;-149.77;82.10
60055;BME280;45930;53.514;55.904;2023-04-22T02:34:57;48759.59;;;-149.77;81.85
60055;BME280;45930;53.514;55.904;2023-04-22T02:35:58;48757.63;;;-149.77;82.19
60055;BME280;45930;53.514;55.904;2023-04-22T02:36:59;48761.59;;;-149.77;82.67
60055;BME280;45930;53.514;55.904;2023-04-22T02:38:00;48725.94;;;-149.77;83.28
60055;BME280;45930;53.514;55.904;2023-04-22T02:39:01;48710.09;;;-149.77;83.78
60055;BME280;45930;53.514;55.904;2023-04-22T02:40:04;48718.03;;;-149.77;83.85
60055;BME280;45930;53.514;55.904;2023-04-22T02:41:05;48670.50;;;-149.77;84.35
60055;BME280;45930;53.514;55.904;2023-04-22T02:42:06;48682.38;;;-149.77;84.68
60055;BME280;45930;53.514;55.904;2023-04-22T02:43:06;48664.53;;;-149.77;85.08
60055;BME280;45930;53.514;55.904;2023-04-22T02:44:07;48650.69;;;-149.77;85.78
60055;BME280;45930;53.514;55.904;2023-04-22T02:45:08;48680.38;;;-149.77;85.83
60055;BME280;45930;53.514;55.904;2023-04-22T02:46:09;48658.59;;;-149.77;85.56
60055;BME280;45930;53.514;55.904;2023-04-22T02:47:12;48674.44;;;-149.77;85.27
60055;BME280;45930;53.514;55.904;2023-04-22T02:48:13;48684.34;;;-149.77;85.04
60055;BME280;45930;53.514;55.904;2023-04-22T02:49:13;48650.69;;;-149.77;85.04
60055;BME280;45930;53.514;55.904;2023-04-22T02:50:14;48696.22;;;-149.77;83.87
60055;BME280;45930;53.514;55.904;2023-04-22T02:51:16;48674.44;;;-149.77;83.59
60055;BME280;45930;53.514;55.904;2023-04-22T02:52:16;48648.69;;;-149.77;83.76
60055;BME280;45930;53.514;55.904;2023-04-22T02:53:17;48684.34;;;-149.77;83.58
60055;BME280;45930;53.514;55.904;2023-04-22T02:54:18;48684.34;;;-149.77;83.26
60055;BME280;45930;53.514;55.904;2023-04-22T02:55:19;48676.44;;;-149.77;83.23
60055;BME280;45930;53.514;55.904;2023-04-22T02:56:20;48666.53;;;-149.77;83.68
60055;BME280;45930;53.514;55.904;2023-04-22T02:57:21;48664.53;;;-149.77;83.43
60055;BME280;45930;53.514;55.904;2023-04-22T02:58:22;48680.38;;;-149.77;83.26
60055;BME280;45930;53.514;55.904;2023-04-22T02:59:23;48678.41;;;-149.77;82.70
60055;BME280;45930;53.514;55.904;2023-04-22T03:00:24;48716.03;;;-149.77;82.00
60055;BME280;45930;53.514;55.904;2023-04-22T03:01:24;48692.28;;;-149.77;81.36
60055;BME280;45930;53.514;55.904;2023-04-22T03:02:25;48692.28;;;-149.77;80.79
60055;BME280;45930;53.514;55.904;2023-04-22T03:03:26;48698.22;;;-149.77;81.06
60055;BME280;45930;53.514;55.904;2023-04-22T03:04:27;48700.19;;;-149.77;81.21
60055;BME280;45930;53.514;55.904;2023-04-22T03:05:28;48712.06;;;-149.77;81.22
60055;BME280;45930;53.514;55.904;2023-04-22T03:06:29;48716.03;;;-149.77;81.03
60055;BME280;45930;53.514;55.904;2023-04-22T03:07:30;48692.28;;;-149.77;80.50
60055;BME280;45930;53.514;55.904;2023-04-22T03:08:31;48716.03;;;-149.77;80.46
60055;BME280;45930;53.514;55.904;2023-04-22T03:09:32;48725.94;;;-149.77;80.03
60055;BME280;45930;53.514;55.904;2023-04-22T03:10:32;48735.84;;;-149.77;79.74
60055;BME280;45930;53.514;55.904;2023-04-22T03:11:33;48723.97;;;-149.77;79.82
60055;BME280;45930;53.514;55.904;2023-04-22T03:12:34;48731.88;;;-149.77;79.87
60055;BME280;45930;53.514;55.904;2023-04-22T03:13:35;48718.03;;;-149.77;80.15
60055;BME280;45930;53.514;55.904;2023-04-22T03:14:36;48712.06;;;-149.77;79.19
60055;BME280;45930;53.514;55.904;2023-04-22T03:15:39;48712.06;;;-149.77;79.02
60055;BME280;45930;53.514;55.904;2023-04-22T03:16:40;48720.00;;;-149.77;78.93
60055;BME280;45930;53.514;55.904;2023-04-22T03:17:41;48747.72;;;-149.77;78.50
60055;BME280;45930;53.514;55.904;2023-04-22T03:18:42;48716.03;;;-149.77;78.60
60055;BME280;45930;53.514;55.904;2023-04-22T03:19:42;48710.09;;;-149.77;78.79
60055;BME280;45930;53.514;55.904;2023-04-22T03:20:43;48723.97;;;-149.77;78.84
60055;BME280;45930;53.514;55.904;2023-04-22T03:21:44;48694.25;;;-149.77;79.58
60055;BME280;45930;53.514;55.904;2023-04-22T03:22:45;48698.22;;;-149.77;80.63
60055;BME280;45930;53.514;55.904;2023-04-22T03:23:46;48688.31;;;-149.77;80.21
60055;BME280;45930;53.514;55.904;2023-04-22T03:24:46;48704.16;;;-149.77;81.13
60055;BME280;45930;53.514;55.904;2023-04-22T03:25:47;48694.25;;;-149.77;80.79
60055;BME280;45930;53.514;55.904;2023-04-22T03:26:48;48700.19;;;-149.77;81.29
60055;BME280;45930;53.514;55.904;2023-04-22T03:27:49;48684.34;;;-149.77;81.31
60055;BME280;45930;53.514;55.904;2023-04-22T03:28:50;48688.31;;;-149.77;81.52
60055;BME280;45930;53.514;55.904;2023-04-22T03:29:50;48656.63;;;-149.77;81.08
60055;BME280;45930;53.514;55.904;2023-04-22T03:30:51;48700.19;;;-149.77;80.37
60055;BME280;45930;53.514;55.904;2023-04-22T03:31:52;48676.44;;;-149.77;79.63
60055;BME280;45930;53.514;55.904;2023-04-22T03:32:53;48688.31;;;-149.77;79.17
60055;BME280;45930;53.514;55.904;2023-04-22T03:33:53;48690.28;;;-149.77;79.00
60055;BME280;45930;53.514;55.904;2023-04-22T03:34:54;48716.03;;;-149.77;78.64
60055;BME280;45930;53.514;55.904;2023-04-22T03:35:55;48694.25;;;-149.77;78.13
60055;BME280;45930;53.514;55.904;2023-04-22T03:36:56;48735.84;;;-149.77;77.69
60055;BME280;45930;53.514;55.904;2023-04-22T03:37:56;48714.06;;;-149.77;77.72
60055;BME280;45930;53.514;55.904;2023-04-22T03:38:57;48718.03;;;-149.77;76.79
60055;BME280;45930;53.514;55.904;2023-04-22T03:39:58;48704.16;;;-149.77;76.24
60055;BME280;45930;53.514;55.904;2023-04-22T03:40:59;48731.88;;;-149.77;75.69
60055;BME280;45930;53.514;55.904;2023-04-22T03:42:00;48735.84;;;-149.77;75.13
60055;BME280;45930;53.514;55.904;2023-04-22T03:43:01;48743.75;;;-149.77;74.34
60055;BME280;45930;53.514;55.904;2023-04-22T03:44:03;48759.59;;;-149.77;73.75
60055;BME280;45930;53.514;55.904;2023-04-22T03:45:04;48743.75;;;-149.77;74.69
60055;BME280;45930;53.514;55.904;2023-04-22T03:46:05;48741.78;;;-149.77;75.51
60055;BME280;45930;53.514;55.904;2023-04-22T03:47:06;48731.88;;;-149.77;75.88
60055;BME280;45930;53.514;55.904;2023-04-22T03:48:07;48733.88;;;-149.77;76.44
60055;BME280;45930;53.514;55.904;2023-04-22T03:49:08;48720.00;;;-149.77;77.08
60055;BME280;45930;53.514;55.904;2023-04-22T03:50:10;48723.97;;;-149.77;76.63
60055;BME280;45930;53.514;55.904;2023-04-22T03:51:10;48720.00;;;-149.77;76.94
60055;BME280;45930;53.514;55.904;2023-04-22T03:52:11;48721.97;;;-149.77;76.62
60055;BME280;45930;53.514;55.904;2023-04-22T03:53:12;48716.03;;;-149.77;76.33
60055;BME280;45930;53.514;55.904;2023-04-22T03:54:13;48704.16;;;-149.77;76.01
60055;BME280;45930;53.514;55.904;2023-04-22T03:55:14;48721.97;;;-149.77;75.83
60055;BME280;45930;53.514;55.904;2023-04-22T03:56:14;48745.75;;;-149.77;74.95
60055;BME280;45930;53.514;55.904;2023-04-22T03:57:15;48747.72;;;-149.77;73.75
60055;BME280;45930;53.514;55.904;2023-04-22T03:58:16;48761.59;;;-149.77;73.05
60055;BME280;45930;53.514;55.904;2023-04-22T03:59:17;48733.88;;;-149.77;73.30
60055;BME280;45930;53.514;55.904;2023-04-22T04:00:18;48743.75;;;-149.77;73.20
60055;BME280;45930;53.514;55.904;2023-04-22T04:01:19;48729.91;;;-149.77;74.54
60055;BME280;45930;53.514;55.904;2023-04-22T04:02:20;48729.91;;;-149.77;74.83
60055;BME280;45930;53.514;55.904;2023-04-22T04:03:20;48745.75;;;-149.77;74.70
60055;BME280;45930;53.514;55.904;2023-04-22T04:04:21;48721.97;;;-149.77;74.11
60055;BME280;45930;53.514;55.904;2023-04-22T04:05:23;48725.94;;;-149.77;74.32
60055;BME280;45930;53.514;55.904;2023-04-22T04:06:24;48741.78;;;-149.77;73.68
60055;BME280;45930;53.514;55.904;2023-04-22T04:07:26;48777.44;;;-149.77;72.66
60055;BME280;45930;53.514;55.904;2023-04-22T04:08:27;48769.50;;;-149.77;72.60
60055;BME280;45930;53.514;55.904;2023-04-22T04:09:28;48761.59;;;-149.77;73.56
60055;BME280;45930;53.514;55.904;2023-04-22T04:10:28;48763.56;;;-149.77;73.46
60055;BME280;45930;53.514;55.904;2023-04-22T04:11:29;48771.50;;;-149.77;73.51
60055;BME280;45930;53.514;55.904;2023-04-22T04:12:30;48781.41;;;-149.77;72.62
60055;BME280;45930;53.514;55.904;2023-04-22T04:13:31;48781.41;;;-149.77;72.63
60055;BME280;45930;53.514;55.904;2023-04-22T04:14:32;48777.44;;;-149.77;72.60
60055;BME280;45930;53.514;55.904;2023-04-22T04:15:33;48783.38;;;-149.77;71.30
60055;BME280;45930;53.514;55.904;2023-04-22T04:16:35;48767.53;;;-149.77;71.32
60055;BME280;45930;53.514;55.904;2023-04-22T04:17:36;48783.38;;;-149.77;70.31
60055;BME280;45930;53.514;55.904;2023-04-22T04:18:37;48777.44;;;-149.77;70.91
60055;BME280;45930;53.514;55.904;2023-04-22T04:19:38;48813.09;;;-149.77;70.84
60055;BME280;45930;53.514;55.904;2023-04-22T04:20:39;48787.34;;;-149.77;70.90
60055;BME280;45930;53.514;55.904;2023-04-22T04:21:40;48797.25;;;-149.77;71.25
60055;BME280;45930;53.514;55.904;2023-04-22T04:22:41;48771.50;;;-149.77;71.65
60055;BME280;45930;53.514;55.904;2023-04-22T04:23:43;48777.44;;;-149.77;70.93
60055;BME280;45930;53.514;55.904;2023-04-22T04:24:44;48803.19;;;-149.77;70.82
60055;BME280;45930;53.514;55.904;2023-04-22T04:25:45;48779.41;;;-149.77;70.66
60055;BME280;45930;53.514;55.904;2023-04-22T04:26:46;48805.16;;;-149.77;70.85
60055;BME280;45930;53.514;55.904;2023-04-22T04:27:48;48779.41;;;-149.77;71.03
60055;BME280;45930;53.514;55.904;2023-04-22T04:28:51;48785.34;;;-149.77;71.58
60055;BME280;45930;53.514;55.904;2023-04-22T04:29:52;48779.41;;;-149.77;70.96
60055;BME280;45930;53.514;55.904;2023-04-22T04:30:55;48781.41;;;-149.77;71.29
60055;BME280;45930;53.514;55.904;2023-04-22T04:31:56;48761.59;;;-149.77;72.40
60055;BME280;45930;53.514;55.904;2023-04-22T04:32:57;48763.56;;;-149.77;72.64
60055;BME280;45930;53.514;55.904;2023-04-22T04:33:58;48761.59;;;-149.77;72.25
60055;BME280;45930;53.514;55.904;2023-04-22T04:34:59;48775.47;;;-149.77;71.17
60055;BME280;45930;53.514;55.904;2023-04-22T04:36:01;48803.19;;;-149.77;70.73
60055;BME280;45930;53.514;55.904;2023-04-22T04:37:02;48773.47;;;-149.77;70.89
60055;BME280;45930;53.514;55.904;2023-04-22T04:38:04;48779.41;;;-149.77;71.22
60055;BME280;45930;53.514;55.904;2023-04-22T04:39:05;48759.59;;;-149.77;72.10
60055;BME280;45930;53.514;55.904;2023-04-22T04:40:08;48769.50;;;-149.77;71.83
60055;BME280;45930;53.514;55.904;2023-04-22T04:41:09;48807.16;;;-149.77;70.67
60055;BME280;45930;53.514;55.904;2023-04-22T04:42:10;48753.66;;;-149.77;70.64
60055;BME280;45930;53.514;55.904;2023-04-22T04:43:11;48824.97;;;-149.77;70.34
60055;BME280;45930;53.514;55.904;2023-04-22T04:44:12;48809.13;;;-149.77;70.01
60055;BME280;45930;53.514;55.904;2023-04-22T04:45:13;48793.28;;;-149.77;70.03
60055;BME280;45930;53.514;55.904;2023-04-22T04:46:14;48838.84;;;-149.77;68.22
60055;BME280;45930;53.514;55.904;2023-04-22T04:47:16;48819.03;;;-149.77;68.05
60055;BME280;45930;53.514;55.904;2023-04-22T04:48:17;48799.22;;;-149.77;69.70
60055;BME280;45930;53.514;55.904;2023-04-22T04:49:19;48783.38;;;-149.77;70.58
60055;BME280;45930;53.514;55.904;2023-04-22T04:50:20;48803.19;;;-149.77;70.40
60055;BME280;45930;53.514;55.904;2023-04-22T04:51:22;48785.34;;;-149.77;70.76
60055;BME280;45930;53.514;55.904;2023-04-22T04:52:23;48791.28;;;-149.77;69.42
60055;BME280;45930;53.514;55.904;2023-04-22T04:53:23;48803.19;;;-149.77;69.64
60055;BME280;45930;53.514;55.904;2023-04-22T04:54:24;48821.00;;;-149.77;69.04
60055;BME280;45930;53.514;55.904;2023-04-22T04:55:25;48817.03;;;-149.77;69.27
60055;BME280;45930;53.514;55.904;2023-04-22T04:56:26;48832.88;;;-149.77;69.66
60055;BME280;45930;53.514;55.904;2023-04-22T04:57:27;48795.25;;;-149.77;69.19
60055;BME280;45930;53.514;55.904;2023-04-22T04:58:28;48803.19;;;-149.77;69.86
60055;BME280;45930;53.514;55.904;2023-04-22T04:59:29;48789.31;;;-149.77;69.06
60055;BME280;45930;53.514;55.904;2023-04-22T05:00:30;48811.09;;;-149.77;68.88
60055;BME280;45930;53.514;55.904;2023-04-22T05:01:30;48785.34;;;-149.77;69.81
60055;BME280;45930;53.514;55.904;2023-04-22T05:02:31;48821.00;;;-149.77;68.56
60055;BME280;45930;53.514;55.904;2023-04-22T05:03:32;48826.94;;;-149.77;67.24
60055;BME280;45930;53.514;55.904;2023-04-22T05:04:33;48824.97;;;-149.77;67.43
60055;BME280;45930;53.514;55.904;2023-04-22T05:05:34;48842.78;;;-149.77;66.89
60055;BME280;45930;53.514;55.904;2023-04-22T05:06:34;48807.16;;;-149.77;67.82
60055;BME280;45930;53.514;55.904;2023-04-22T05:07:38;48819.03;;;-149.77;67.51
60055;BME280;45930;53.514;55.904;2023-04-22T05:08:39;48828.94;;;-149.77;67.75
60055;BME280;45930;53.514;55.904;2023-04-22T05:09:39;48797.25;;;-149.77;67.68
60055;BME280;45930;53.514;55.904;2023-04-22T05:10:40;48826.94;;;-149.77;67.70
60055;BME280;45930;53.514;55.904;2023-04-22T05:11:42;48846.75;;;-149.77;67.13